sensor_id;sensor_type;location;lat;lon;timestamp;P1;durP1;ratioP1;P2;durP2;ratioP2
71637;SDS011;59485;43.542;-5.676;2023-07-20T00:00:29;9.48;;;3.88;;
71637;SDS011;59485;43.542;-5.676;2023-07-20T00:03:17;12.85;;;3.95;;
71637;SDS011;59485;43.542;-5.676;2023-07-20T00:05:44;10.63;;;3.80;;
71637;SDS011;59485;43.542;-5.676;2023-07-20T00:08:12;7.70;;;4.03;;
71637;SDS011;59485;43.542;-5.676;2023-07-20T00:10:39;10.67;;;4.10;;
71637;SDS011;59485;43.542;-5.676;2023-07-20T00:13:05;8.75;;;3.65;;
71637;SDS011;59485;43.542;-5.676;2023-07-20T00:15:31;9.77;;;3.80;;
71637;SDS011;59485;43.542;-5.676;2023-07-20T00:17:57;9.43;;;3.50;;
71637;SDS011;59485;43.542;-5.676;2023-07-20T00:20:23;7.80;;;3.95;;
71637;SDS011;59485;43.542;-5.676;2023-07-20T00:22:50;8.80;;;3.43;;
71637;SDS011;59485;43.542;-5.676;2023-07-20T00:25:20;9.98;;;2.92;;
71637;SDS011;59485;43.542;-5.676;2023-07-20T00:27:48;14.52;;;4.85;;
71637;SDS011;59485;43.542;-5.676;2023-07-20T00:30:14;8.45;;;3.88;;
71637;SDS011;59485;43.542;-5.676;2023-07-20T00:32:41;7.67;;;3.93;;
71637;SDS011;59485;43.542;-5.676;2023-07-20T00:35:07;11.63;;;4.03;;
71637;SDS011;59485;43.542;-5.676;2023-07-20T00:37:33;9.25;;;3.90;;
71637;SDS011;59485;43.542;-5.676;2023-07-20T00:39:59;7.13;;;3.20;;
71637;SDS011;59485;43.542;-5.676;2023-07-20T00:42:24;9.15;;;3.97;;
71637;SDS011;59485;43.542;-5.676;2023-07-20T00:44:50;8.60;;;3.63;;
71637;SDS011;59485;43.542;-5.676;2023-07-20T00:47:15;9.67;;;4.23;;
71637;SDS011;59485;43.542;-5.676;2023-07-20T00:49:41;10.07;;;3.33;;
71637;SDS011;59485;43.542;-5.676;2023-07-20T00:52:08;10.05;;;4.05;;
71637;SDS011;59485;43.542;-5.676;2023-07-20T00:54:39;8.07;;;3.67;;
71637;SDS011;59485;43.542;-5.676;2023-07-20T00:57:06;10.03;;;3.70;;
71637;SDS011;59485;43.542;-5.676;2023-07-20T00:59:33;10.18;;;3.92;;
71637;SDS011;59485;43.542;-5.676;2023-07-20T01:02:00;8.20;;;3.90;;
71637;SDS011;59485;43.542;-5.676;2023-07-20T01:04:26;10.50;;;3.88;;
71637;SDS011;59485;43.542;-5.676;2023-07-20T01:07:03;9.77;;;3.70;;
71637;SDS011;59485;43.542;-5.676;2023-07-20T01:12:28;10.60;;;4.40;;
71637;SDS011;59485;43.542;-5.676;2023-07-20T01:15:01;7.82;;;3.38;;
71637;SDS011;59485;43.542;-5.676;2023-07-20T01:17:30;6.90;;;3.83;;
71637;SDS011;59485;43.542;-5.676;2023-07-20T01:19:56;7.97;;;3.50;;
71637;SDS011;59485;43.542;-5.676;2023-07-20T01:33:43;10.45;;;3.50;;
71637;SDS011;59485;43.542;-5.676;2023-07-20T01:36:11;7.35;;;3.30;;
71637;SDS011;59485;43.542;-5.676;2023-07-20T01:38:38;11.27;;;3.42;;
71637;SDS011;59485;43.542;-5.676;2023-07-20T01:41:06;9.83;;;3.00;;
71637;SDS011;59485;43.542;-5.676;2023-07-20T01:43:32;9.85;;;3.40;;
71637;SDS011;59485;43.542;-5.676;2023-07-20T01:46:00;8.52;;;3.35;;
71637;SDS011;59485;43.542;-5.676;2023-07-20T01:48:26;7.80;;;3.22;;
71637;SDS011;59485;43.542;-5.676;2023-07-20T01:50:53;7.47;;;3.30;;
71637;SDS011;59485;43.542;-5.676;2023-07-20T01:53:22;9.73;;;2.92;;
71637;SDS011;59485;43.542;-5.676;2023-07-20T01:55:47;8.45;;;3.35;;
71637;SDS011;59485;43.542;-5.676;2023-07-20T01:58:13;9.03;;;3.20;;
71637;SDS011;59485;43.542;-5.676;2023-07-20T02:00:39;9.20;;;3.58;;
71637;SDS011;59485;43.542;-5.676;2023-07-20T02:03:04;8.77;;;3.10;;
71637;SDS011;59485;43.542;-5.676;2023-07-20T02:05:32;10.63;;;3.80;;
71637;SDS011;59485;43.542;-5.676;2023-07-20T02:07:58;12.38;;;4.07;;
71637;SDS011;59485;43.542;-5.676;2023-07-20T02:10:25;8.63;;;3.85;;
71637;SDS011;59485;43.542;-5.676;2023-07-20T02:12:50;8.83;;;3.70;;
71637;SDS011;59485;43.542;-5.676;2023-07-20T02:15:17;9.38;;;3.55;;
71637;SDS011;59485;43.542;-5.676;2023-07-20T02:17:43;9.03;;;4.00;;
71637;SDS011;59485;43.542;-5.676;2023-07-20T02:20:09;8.40;;;3.42;;
71637;SDS011;59485;43.542;-5.676;2023-07-20T02:22:39;7.70;;;3.60;;
71637;SDS011;59485;43.542;-5.676;2023-07-20T02:25:05;10.13;;;3.73;;
71637;SDS011;59485;43.542;-5.676;2023-07-20T02:27:32;8.25;;;3.22;;
71637;SDS011;59485;43.542;-5.676;2023-07-20T02:29:59;7.35;;;3.17;;
71637;SDS011;59485;43.542;-5.676;2023-07-20T02:32:24;9.63;;;3.92;;
71637;SDS011;59485;43.542;-5.676;2023-07-20T02:34:52;13.00;;;4.07;;
71637;SDS011;59485;43.542;-5.676;2023-07-20T02:37:17;9.10;;;3.65;;
71637;SDS011;59485;43.542;-5.676;2023-07-20T02:39:43;11.77;;;5.07;;
71637;SDS011;59485;43.542;-5.676;2023-07-20T02:42:09;9.53;;;3.70;;
71637;SDS011;59485;43.542;-5.676;2023-07-20T02:44:39;8.00;;;3.70;;
71637;SDS011;59485;43.542;-5.676;2023-07-20T02:47:05;10.70;;;3.97;;
71637;SDS011;59485;43.542;-5.676;2023-07-20T02:49:31;11.40;;;3.83;;
71637;SDS011;59485;43.542;-5.676;2023-07-20T02:51:57;9.40;;;4.32;;
71637;SDS011;59485;43.542;-5.676;2023-07-20T02:54:23;10.50;;;3.90;;
71637;SDS011;59485;43.542;-5.676;2023-07-20T02:56:49;9.47;;;3.67;;
71637;SDS011;59485;43.542;-5.676;2023-07-20T02:59:15;11.13;;;4.30;;
71637;SDS011;59485;43.542;-5.676;2023-07-20T03:01:41;8.15;;;3.95;;
71637;SDS011;59485;43.542;-5.676;2023-07-20T03:04:09;9.37;;;3.93;;
71637;SDS011;59485;43.542;-5.676;2023-07-20T03:06:35;8.90;;;3.88;;
71637;SDS011;59485;43.542;-5.676;2023-07-20T03:09:04;7.35;;;3.72;;
71637;SDS011;59485;43.542;-5.676;2023-07-20T03:11:32;9.40;;;4.03;;
71637;SDS011;59485;43.542;-5.676;2023-07-20T03:13:57;10.32;;;3.47;;
71637;SDS011;59485;43.542;-5.676;2023-07-20T03:16:23;9.27;;;3.80;;
71637;SDS011;59485;43.542;-5.676;2023-07-20T03:18:50;9.07;;;3.80;;
71637;SDS011;59485;43.542;-5.676;2023-07-20T03:21:16;9.13;;;3.80;;
71637;SDS011;59485;43.542;-5.676;2023-07-20T03:23:41;10.77;;;3.73;;
71637;SDS011;59485;43.542;-5.676;2023-07-20T03:26:10;10.05;;;4.10;;
71637;SDS011;59485;43.542;-5.676;2023-07-20T03:28:39;9.63;;;3.75;;
71637;SDS011;59485;43.542;-5.676;2023-07-20T03:31:05;9.20;;;3.80;;
71637;SDS011;59485;43.542;-5.676;2023-07-20T03:33:30;10.27;;;3.80;;
71637;SDS011;59485;43.542;-5.676;2023-07-20T03:35:57;8.07;;;3.38;;
71637;SDS011;59485;43.542;-5.676;2023-07-20T03:38:23;9.73;;;3.60;;
71637;SDS011;59485;43.542;-5.676;2023-07-20T03:40:56;10.30;;;3.75;;
71637;SDS011;59485;43.542;-5.676;2023-07-20T03:43:23;8.40;;;3.70;;
71637;SDS011;59485;43.542;-5.676;2023-07-20T03:45:50;8.63;;;3.83;;
71637;SDS011;59485;43.542;-5.676;2023-07-20T03:48:17;8.25;;;3.75;;
71637;SDS011;59485;43.542;-5.676;2023-07-20T03:50:44;10.27;;;3.80;;
71637;SDS011;59485;43.542;-5.676;2023-07-20T03:53:12;12.93;;;4.38;;
71637;SDS011;59485;43.542;-5.676;2023-07-20T03:55:38;9.33;;;3.60;;
71637;SDS011;59485;43.542;-5.676;2023-07-20T03:58:05;12.70;;;3.78;;
71637;SDS011;59485;43.542;-5.676;2023-07-20T04:00:31;8.43;;;3.70;;
71637;SDS011;59485;43.542;-5.676;2023-07-20T04:02:57;11.90;;;4.67;;
71637;SDS011;59485;43.542;-5.676;2023-07-20T04:05:24;7.95;;;4.07;;
71637;SDS011;59485;43.542;-5.676;2023-07-20T04:07:50;10.65;;;4.07;;
71637;SDS011;59485;43.542;-5.676;2023-07-20T04:10:17;11.45;;;3.65;;
71637;SDS011;59485;43.542;-5.676;2023-07-20T04:12:43;9.70;;;3.42;;
71637;SDS011;59485;43.542;-5.676;2023-07-20T04:15:10;10.60;;;3.80;;
71637;SDS011;59485;43.542;-5.676;2023-07-20T04:17:35;10.73;;;3.47;;
71637;SDS011;59485;43.542;-5.676;2023-07-20T04:20:01;11.15;;;4.80;;
71637;SDS011;59485;43.542;-5.676;2023-07-20T04:22:28;10.13;;;4.17;;
71637;SDS011;59485;43.542;-5.676;2023-07-20T04:24:54;10.77;;;3.63;;
71637;SDS011;59485;43.542;-5.676;2023-07-20T04:27:19;11.98;;;4.78;;
71637;SDS011;59485;43.542;-5.676;2023-07-20T04:29:45;10.17;;;3.83;;
71637;SDS011;59485;43.542;-5.676;2023-07-20T04:32:10;8.32;;;3.78;;
71637;SDS011;59485;43.542;-5.676;2023-07-20T04:34:40;8.10;;;4.00;;
71637;SDS011;59485;43.542;-5.676;2023-07-20T04:37:06;7.20;;;3.55;;
71637;SDS011;59485;43.542;-5.676;2023-07-20T04:41:57;8.63;;;3.95;;
71637;SDS011;59485;43.542;-5.676;2023-07-20T04:44:23;10.27;;;3.67;;
71637;SDS011;59485;43.542;-5.676;2023-07-20T04:46:48;10.60;;;3.90;;
71637;SDS011;59485;43.542;-5.676;2023-07-20T04:49:14;9.82;;;4.38;;
71637;SDS011;59485;43.542;-5.676;2023-07-20T04:51:39;10.20;;;3.97;;
71637;SDS011;59485;43.542;-5.676;2023-07-20T04:54:05;8.77;;;4.25;;
71637;SDS011;59485;43.542;-5.676;2023-07-20T04:56:37;8.20;;;3.13;;
71637;SDS011;59485;43.542;-5.676;2023-07-20T04:59:02;8.95;;;4.10;;
71637;SDS011;59485;43.542;-5.676;2023-07-20T05:01:28;8.37;;;3.70;;
71637;SDS011;59485;43.542;-5.676;2023-07-20T05:03:53;10.73;;;4.30;;
71637;SDS011;59485;43.542;-5.676;2023-07-20T05:06:19;9.18;;;3.60;;
71637;SDS011;59485;43.542;-5.676;2023-07-20T05:08:44;8.00;;;3.47;;
71637;SDS011;59485;43.542;-5.676;2023-07-20T05:11:10;11.50;;;3.92;;
71637;SDS011;59485;43.542;-5.676;2023-07-20T05:13:37;10.30;;;3.87;;
71637;SDS011;59485;43.542;-5.676;2023-07-20T05:16:03;9.23;;;3.85;;
71637;SDS011;59485;43.542;-5.676;2023-07-20T05:18:28;10.75;;;4.13;;
71637;SDS011;59485;43.542;-5.676;2023-07-20T05:20:54;9.43;;;4.00;;
71637;SDS011;59485;43.542;-5.676;2023-07-20T05:23:20;12.07;;;3.80;;
71637;SDS011;59485;43.542;-5.676;2023-07-20T05:25:47;7.93;;;3.92;;
71637;SDS011;59485;43.542;-5.676;2023-07-20T05:28:18;11.60;;;4.03;;
71637;SDS011;59485;43.542;-5.676;2023-07-20T05:30:44;10.60;;;4.97;;
71637;SDS011;59485;43.542;-5.676;2023-07-20T05:33:10;11.27;;;4.60;;
71637;SDS011;59485;43.542;-5.676;2023-07-20T05:35:36;12.98;;;5.97;;
71637;SDS011;59485;43.542;-5.676;2023-07-20T05:38:02;10.70;;;4.10;;
71637;SDS011;59485;43.542;-5.676;2023-07-20T05:40:30;27.30;;;5.77;;
71637;SDS011;59485;43.542;-5.676;2023-07-20T05:42:55;16.92;;;4.60;;
71637;SDS011;59485;43.542;-5.676;2023-07-20T05:45:22;9.95;;;4.25;;
71637;SDS011;59485;43.542;-5.676;2023-07-20T05:47:48;10.57;;;3.40;;
71637;SDS011;59485;43.542;-5.676;2023-07-20T05:50:14;11.23;;;3.88;;
71637;SDS011;59485;43.542;-5.676;2023-07-20T05:52:40;9.15;;;3.72;;
71637;SDS011;59485;43.542;-5.676;2023-07-20T05:55:06;9.60;;;4.03;;
71637;SDS011;59485;43.542;-5.676;2023-07-20T05:57:36;10.05;;;3.90;;
71637;SDS011;59485;43.542;-5.676;2023-07-20T06:00:07;9.18;;;3.60;;
71637;SDS011;59485;43.542;-5.676;2023-07-20T06:02:33;9.57;;;3.78;;
71637;SDS011;59485;43.542;-5.676;2023-07-20T06:04:58;9.70;;;4.20;;
71637;SDS011;59485;43.542;-5.676;2023-07-20T06:07:24;8.40;;;3.97;;
71637;SDS011;59485;43.542;-5.676;2023-07-20T06:09:50;9.00;;;3.80;;
71637;SDS011;59485;43.542;-5.676;2023-07-20T06:12:15;9.47;;;3.77;;
71637;SDS011;59485;43.542;-5.676;2023-07-20T06:14:41;8.60;;;4.07;;
71637;SDS011;59485;43.542;-5.676;2023-07-20T06:17:06;9.83;;;3.93;;
71637;SDS011;59485;43.542;-5.676;2023-07-20T06:19:32;12.23;;;4.30;;
71637;SDS011;59485;43.542;-5.676;2023-07-20T06:21:58;12.87;;;5.13;;
71637;SDS011;59485;43.542;-5.676;2023-07-20T06:24:26;15.82;;;4.63;;
71637;SDS011;59485;43.542;-5.676;2023-07-20T06:26:54;9.73;;;4.05;;
71637;SDS011;59485;43.542;-5.676;2023-07-20T06:29:26;9.73;;;4.43;;
71637;SDS011;59485;43.542;-5.676;2023-07-20T06:31:52;7.40;;;3.90;;
71637;SDS011;59485;43.542;-5.676;2023-07-20T06:34:17;8.90;;;3.43;;
71637;SDS011;59485;43.542;-5.676;2023-07-20T06:36:43;11.73;;;3.43;;
71637;SDS011;59485;43.542;-5.676;2023-07-20T06:39:16;7.50;;;3.85;;
71637;SDS011;59485;43.542;-5.676;2023-07-20T06:41:44;9.13;;;4.05;;
71637;SDS011;59485;43.542;-5.676;2023-07-20T06:44:10;8.43;;;3.40;;
71637;SDS011;59485;43.542;-5.676;2023-07-20T06:46:36;9.18;;;3.50;;
71637;SDS011;59485;43.542;-5.676;2023-07-20T06:49:05;8.57;;;3.73;;
71637;SDS011;59485;43.542;-5.676;2023-07-20T06:51:33;8.25;;;3.50;;
71637;SDS011;59485;43.542;-5.676;2023-07-20T06:54:04;11.23;;;4.00;;
71637;SDS011;59485;43.542;-5.676;2023-07-20T06:56:35;9.13;;;3.70;;
71637;SDS011;59485;43.542;-5.676;2023-07-20T06:59:01;10.27;;;3.92;;
71637;SDS011;59485;43.542;-5.676;2023-07-20T07:01:27;9.90;;;3.97;;
71637;SDS011;59485;43.542;-5.676;2023-07-20T07:03:53;9.13;;;3.83;;
71637;SDS011;59485;43.542;-5.676;2023-07-20T07:06:19;11.30;;;3.73;;
71637;SDS011;59485;43.542;-5.676;2023-07-20T07:08:46;9.75;;;3.97;;
71637;SDS011;59485;43.542;-5.676;2023-07-20T07:11:11;8.90;;;3.30;;
71637;SDS011;59485;43.542;-5.676;2023-07-20T07:13:37;8.70;;;3.53;;
71637;SDS011;59485;43.542;-5.676;2023-07-20T07:16:03;7.13;;;3.57;;
71637;SDS011;59485;43.542;-5.676;2023-07-20T07:18:31;11.73;;;3.88;;
71637;SDS011;59485;43.542;-5.676;2023-07-20T07:20:57;9.43;;;3.43;;
71637;SDS011;59485;43.542;-5.676;2023-07-20T07:23:23;7.55;;;3.33;;
71637;SDS011;59485;43.542;-5.676;2023-07-20T07:25:51;9.07;;;3.42;;
71637;SDS011;59485;43.542;-5.676;2023-07-20T07:28:28;9.00;;;3.20;;
71637;SDS011;59485;43.542;-5.676;2023-07-20T07:30:54;9.15;;;3.55;;
71637;SDS011;59485;43.542;-5.676;2023-07-20T07:33:26;9.87;;;3.73;;
71637;SDS011;59485;43.542;-5.676;2023-07-20T07:36:00;8.45;;;3.28;;
71637;SDS011;59485;43.542;-5.676;2023-07-20T07:38:49;9.98;;;3.38;;
71637;SDS011;59485;43.542;-5.676;2023-07-20T07:41:15;7.15;;;3.05;;
71637;SDS011;59485;43.542;-5.676;2023-07-20T07:43:40;9.57;;;3.20;;
71637;SDS011;59485;43.542;-5.676;2023-07-20T07:46:11;8.10;;;3.20;;
71637;SDS011;59485;43.542;-5.676;2023-07-20T07:48:39;10.38;;;3.13;;
71637;SDS011;59485;43.542;-5.676;2023-07-20T07:51:05;8.73;;;3.37;;
71637;SDS011;59485;43.542;-5.676;2023-07-20T07:53:34;9.88;;;3.42;;
71637;SDS011;59485;43.542;-5.676;2023-07-20T07:56:02;9.30;;;3.70;;
71637;SDS011;59485;43.542;-5.676;2023-07-20T07:58:28;8.25;;;3.60;;
71637;SDS011;59485;43.542;-5.676;2023-07-20T08:00:54;7.33;;;2.87;;
71637;SDS011;59485;43.542;-5.676;2023-07-20T08:03:19;8.20;;;3.05;;
71637;SDS011;59485;43.542;-5.676;2023-07-20T08:05:49;7.57;;;3.03;;
71637;SDS011;59485;43.542;-5.676;2023-07-20T08:08:15;7.65;;;3.30;;
71637;SDS011;59485;43.542;-5.676;2023-07-20T08:10:41;7.93;;;3.33;;
71637;SDS011;59485;43.542;-5.676;2023-07-20T08:13:06;7.80;;;3.10;;
71637;SDS011;59485;43.542;-5.676;2023-07-20T08:15:32;8.30;;;3.03;;
71637;SDS011;59485;43.542;-5.676;2023-07-20T08:17:57;8.93;;;3.33;;
71637;SDS011;59485;43.542;-5.676;2023-07-20T08:20:23;7.77;;;3.43;;
71637;SDS011;59485;43.542;-5.676;2023-07-20T08:22:54;7.28;;;3.05;;
71637;SDS011;59485;43.542;-5.676;2023-07-20T08:25:21;7.25;;;3.50;;
71637;SDS011;59485;43.542;-5.676;2023-07-20T08:27:47;8.23;;;3.90;;
71637;SDS011;59485;43.542;-5.676;2023-07-20T08:30:15;8.40;;;3.83;;
71637;SDS011;59485;43.542;-5.676;2023-07-20T08:32:43;7.30;;;3.40;;
71637;SDS011;59485;43.542;-5.676;2023-07-20T08:35:09;8.93;;;4.25;;
71637;SDS011;59485;43.542;-5.676;2023-07-20T08:37:35;10.20;;;3.83;;
71637;SDS011;59485;43.542;-5.676;2023-07-20T08:40:01;9.68;;;4.18;;
71637;SDS011;59485;43.542;-5.676;2023-07-20T08:42:29;7.97;;;3.63;;
71637;SDS011;59485;43.542;-5.676;2023-07-20T08:44:55;10.23;;;3.38;;
71637;SDS011;59485;43.542;-5.676;2023-07-20T08:47:22;6.90;;;3.03;;
71637;SDS011;59485;43.542;-5.676;2023-07-20T08:49:50;5.82;;;2.72;;
71637;SDS011;59485;43.542;-5.676;2023-07-20T08:52:17;6.30;;;2.67;;
71637;SDS011;59485;43.542;-5.676;2023-07-20T08:54:43;6.05;;;2.55;;
71637;SDS011;59485;43.542;-5.676;2023-07-20T08:57:08;8.37;;;3.23;;
71637;SDS011;59485;43.542;-5.676;2023-07-20T08:59:39;9.63;;;2.67;;
71637;SDS011;59485;43.542;-5.676;2023-07-20T09:02:05;6.77;;;2.73;;
71637;SDS011;59485;43.542;-5.676;2023-07-20T09:04:33;6.50;;;2.43;;
71637;SDS011;59485;43.542;-5.676;2023-07-20T09:06:59;7.70;;;2.42;;
71637;SDS011;59485;43.542;-5.676;2023-07-20T09:09:24;7.30;;;2.97;;
71637;SDS011;59485;43.542;-5.676;2023-07-20T09:11:50;6.00;;;1.85;;
71637;SDS011;59485;43.542;-5.676;2023-07-20T09:14:16;5.40;;;1.27;;
71637;SDS011;59485;43.542;-5.676;2023-07-20T09:19:20;5.32;;;0.95;;
71637;SDS011;59485;43.542;-5.676;2023-07-20T09:21:47;5.63;;;1.60;;
71637;SDS011;59485;43.542;-5.676;2023-07-20T09:24:14;5.67;;;1.30;;
71637;SDS011;59485;43.542;-5.676;2023-07-20T09:26:41;6.53;;;1.00;;
71637;SDS011;59485;43.542;-5.676;2023-07-20T09:29:08;4.03;;;0.85;;
71637;SDS011;59485;43.542;-5.676;2023-07-20T09:31:37;9.48;;;1.77;;
71637;SDS011;59485;43.542;-5.676;2023-07-20T09:34:04;6.22;;;2.28;;
71637;SDS011;59485;43.542;-5.676;2023-07-20T09:36:32;5.47;;;1.07;;
71637;SDS011;59485;43.542;-5.676;2023-07-20T09:38:59;4.55;;;0.77;;
71637;SDS011;59485;43.542;-5.676;2023-07-20T09:41:25;6.70;;;1.50;;
71637;SDS011;59485;43.542;-5.676;2023-07-20T09:43:51;5.15;;;1.38;;
71637;SDS011;59485;43.542;-5.676;2023-07-20T09:46:18;5.57;;;1.60;;
71637;SDS011;59485;43.542;-5.676;2023-07-20T09:48:56;4.73;;;1.20;;
71637;SDS011;59485;43.542;-5.676;2023-07-20T09:51:22;5.55;;;1.00;;
71637;SDS011;59485;43.542;-5.676;2023-07-20T09:53:49;5.55;;;1.15;;
71637;SDS011;59485;43.542;-5.676;2023-07-20T09:56:17;4.47;;;1.25;;
71637;SDS011;59485;43.542;-5.676;2023-07-20T09:58:46;5.05;;;1.58;;
71637;SDS011;59485;43.542;-5.676;2023-07-20T10:01:13;6.23;;;1.50;;
71637;SDS011;59485;43.542;-5.676;2023-07-20T10:03:46;4.60;;;0.80;;
71637;SDS011;59485;43.542;-5.676;2023-07-20T10:06:13;6.13;;;1.30;;
71637;SDS011;59485;43.542;-5.676;2023-07-20T10:08:41;4.03;;;0.70;;
71637;SDS011;59485;43.542;-5.676;2023-07-20T10:11:07;4.85;;;1.35;;
71637;SDS011;59485;43.542;-5.676;2023-07-20T10:13:38;3.80;;;0.90;;
71637;SDS011;59485;43.542;-5.676;2023-07-20T10:16:14;5.80;;;1.05;;
71637;SDS011;59485;43.542;-5.676;2023-07-20T10:21:23;4.43;;;1.88;;
71637;SDS011;59485;43.542;-5.676;2023-07-20T10:23:49;4.47;;;1.33;;
71637;SDS011;59485;43.542;-5.676;2023-07-20T10:26:15;4.50;;;1.53;;
71637;SDS011;59485;43.542;-5.676;2023-07-20T10:28:41;6.90;;;1.58;;
71637;SDS011;59485;43.542;-5.676;2023-07-20T10:31:10;5.83;;;1.60;;
71637;SDS011;59485;43.542;-5.676;2023-07-20T10:33:46;6.82;;;1.63;;
71637;SDS011;59485;43.542;-5.676;2023-07-20T10:36:24;5.78;;;1.80;;
71637;SDS011;59485;43.542;-5.676;2023-07-20T10:38:55;5.15;;;1.55;;
71637;SDS011;59485;43.542;-5.676;2023-07-20T10:41:32;6.07;;;2.10;;
71637;SDS011;59485;43.542;-5.676;2023-07-20T10:44:25;8.13;;;1.57;;
71637;SDS011;59485;43.542;-5.676;2023-07-20T10:46:50;6.38;;;1.98;;
71637;SDS011;59485;43.542;-5.676;2023-07-20T10:49:26;5.88;;;1.60;;
71637;SDS011;59485;43.542;-5.676;2023-07-20T10:51:59;4.17;;;1.00;;
71637;SDS011;59485;43.542;-5.676;2023-07-20T10:54:33;5.32;;;1.55;;
71637;SDS011;59485;43.542;-5.676;2023-07-20T10:57:21;4.53;;;1.70;;
71637;SDS011;59485;43.542;-5.676;2023-07-20T10:59:53;5.97;;;1.50;;
71637;SDS011;59485;43.542;-5.676;2023-07-20T11:02:51;5.28;;;1.65;;
71637;SDS011;59485;43.542;-5.676;2023-07-20T11:05:36;4.10;;;1.37;;
71637;SDS011;59485;43.542;-5.676;2023-07-20T11:08:03;6.95;;;1.60;;
71637;SDS011;59485;43.542;-5.676;2023-07-20T11:10:30;6.63;;;2.17;;
71637;SDS011;59485;43.542;-5.676;2023-07-20T11:13:18;4.82;;;1.92;;
71637;SDS011;59485;43.542;-5.676;2023-07-20T11:18:25;5.03;;;1.47;;
71637;SDS011;59485;43.542;-5.676;2023-07-20T11:20:51;4.57;;;0.98;;
71637;SDS011;59485;43.542;-5.676;2023-07-20T11:23:19;7.00;;;2.17;;
71637;SDS011;59485;43.542;-5.676;2023-07-20T11:25:52;6.22;;;1.00;;
71637;SDS011;59485;43.542;-5.676;2023-07-20T11:28:20;5.35;;;2.25;;
71637;SDS011;59485;43.542;-5.676;2023-07-20T11:30:49;3.20;;;1.00;;
71637;SDS011;59485;43.542;-5.676;2023-07-20T11:33:20;4.18;;;1.15;;
71637;SDS011;59485;43.542;-5.676;2023-07-20T11:35:56;5.20;;;1.35;;
71637;SDS011;59485;43.542;-5.676;2023-07-20T11:38:23;6.40;;;1.33;;
71637;SDS011;59485;43.542;-5.676;2023-07-20T11:40:51;4.85;;;1.50;;
71637;SDS011;59485;43.542;-5.676;2023-07-20T11:43:16;5.70;;;1.43;;
71637;SDS011;59485;43.542;-5.676;2023-07-20T11:45:45;5.55;;;2.25;;
71637;SDS011;59485;43.542;-5.676;2023-07-20T11:48:15;7.78;;;2.08;;
71637;SDS011;59485;43.542;-5.676;2023-07-20T11:50:41;5.10;;;1.48;;
71637;SDS011;59485;43.542;-5.676;2023-07-20T11:53:08;5.47;;;1.50;;
71637;SDS011;59485;43.542;-5.676;2023-07-20T11:55:37;6.93;;;2.50;;
71637;SDS011;59485;43.542;-5.676;2023-07-20T11:58:06;7.30;;;2.03;;
71637;SDS011;59485;43.542;-5.676;2023-07-20T12:00:34;5.28;;;1.60;;
71637;SDS011;59485;43.542;-5.676;2023-07-20T12:03:04;4.25;;;1.35;;
71637;SDS011;59485;43.542;-5.676;2023-07-20T12:05:38;5.43;;;1.93;;
71637;SDS011;59485;43.542;-5.676;2023-07-20T12:08:04;6.32;;;1.92;;
71637;SDS011;59485;43.542;-5.676;2023-07-20T12:10:39;6.07;;;1.73;;
71637;SDS011;59485;43.542;-5.676;2023-07-20T12:13:09;5.00;;;1.23;;
71637;SDS011;59485;43.542;-5.676;2023-07-20T12:15:36;7.20;;;2.28;;
71637;SDS011;59485;43.542;-5.676;2023-07-20T12:18:02;4.23;;;1.37;;
71637;SDS011;59485;43.542;-5.676;2023-07-20T12:20:29;4.70;;;1.23;;
71637;SDS011;59485;43.542;-5.676;2023-07-20T12:23:12;4.25;;;1.83;;
71637;SDS011;59485;43.542;-5.676;2023-07-20T12:28:08;4.43;;;1.27;;
71637;SDS011;59485;43.542;-5.676;2023-07-20T12:30:39;5.13;;;1.60;;
71637;SDS011;59485;43.542;-5.676;2023-07-20T12:33:06;7.65;;;1.80;;
71637;SDS011;59485;43.542;-5.676;2023-07-20T12:35:32;6.10;;;1.67;;
71637;SDS011;59485;43.542;-5.676;2023-07-20T12:37:58;5.95;;;1.67;;
71637;SDS011;59485;43.542;-5.676;2023-07-20T12:40:24;5.70;;;1.80;;
71637;SDS011;59485;43.542;-5.676;2023-07-20T12:42:53;5.55;;;1.08;;
71637;SDS011;59485;43.542;-5.676;2023-07-20T12:45:18;4.32;;;1.45;;
71637;SDS011;59485;43.542;-5.676;2023-07-20T12:47:44;5.10;;;1.17;;
71637;SDS011;59485;43.542;-5.676;2023-07-20T12:50:10;10.73;;;3.70;;
71637;SDS011;59485;43.542;-5.676;2023-07-20T12:52:36;4.50;;;2.05;;
71637;SDS011;59485;43.542;-5.676;2023-07-20T12:55:04;5.23;;;2.17;;
71637;SDS011;59485;43.542;-5.676;2023-07-20T12:57:30;4.85;;;1.67;;
71637;SDS011;59485;43.542;-5.676;2023-07-20T12:59:56;4.63;;;1.30;;
71637;SDS011;59485;43.542;-5.676;2023-07-20T13:02:21;6.05;;;1.73;;
71637;SDS011;59485;43.542;-5.676;2023-07-20T13:04:47;5.40;;;1.50;;
71637;SDS011;59485;43.542;-5.676;2023-07-20T13:07:12;7.43;;;2.43;;
71637;SDS011;59485;43.542;-5.676;2023-07-20T13:09:38;7.20;;;2.67;;
71637;SDS011;59485;43.542;-5.676;2023-07-20T13:12:03;7.37;;;3.17;;
71637;SDS011;59485;43.542;-5.676;2023-07-20T13:14:29;6.63;;;1.80;;
71637;SDS011;59485;43.542;-5.676;2023-07-20T13:16:57;10.67;;;3.50;;
71637;SDS011;59485;43.542;-5.676;2023-07-20T13:19:23;8.48;;;2.20;;
71637;SDS011;59485;43.542;-5.676;2023-07-20T13:21:49;5.50;;;1.93;;
71637;SDS011;59485;43.542;-5.676;2023-07-20T13:24:14;5.30;;;1.60;;
71637;SDS011;59485;43.542;-5.676;2023-07-20T13:26:40;6.80;;;1.57;;
71637;SDS011;59485;43.542;-5.676;2023-07-20T13:29:06;4.53;;;1.20;;
71637;SDS011;59485;43.542;-5.676;2023-07-20T13:31:31;4.55;;;1.42;;
71637;SDS011;59485;43.542;-5.676;2023-07-20T13:33:57;5.63;;;1.60;;
71637;SDS011;59485;43.542;-5.676;2023-07-20T13:36:23;5.80;;;1.13;;
71637;SDS011;59485;43.542;-5.676;2023-07-20T13:38:49;12.30;;;2.40;;
71637;SDS011;59485;43.542;-5.676;2023-07-20T13:41:14;5.10;;;1.80;;
71637;SDS011;59485;43.542;-5.676;2023-07-20T13:43:41;5.40;;;1.77;;
71637;SDS011;59485;43.542;-5.676;2023-07-20T13:46:07;3.28;;;1.05;;
71637;SDS011;59485;43.542;-5.676;2023-07-20T13:48:32;4.25;;;1.33;;
71637;SDS011;59485;43.542;-5.676;2023-07-20T13:50:58;4.00;;;1.47;;
71637;SDS011;59485;43.542;-5.676;2023-07-20T13:53:24;4.00;;;1.73;;
71637;SDS011;59485;43.542;-5.676;2023-07-20T13:55:49;6.30;;;1.73;;
71637;SDS011;59485;43.542;-5.676;2023-07-20T13:58:15;8.87;;;1.83;;
71637;SDS011;59485;43.542;-5.676;2023-07-20T14:00:41;4.22;;;1.35;;
71637;SDS011;59485;43.542;-5.676;2023-07-20T14:03:07;3.37;;;1.50;;
71637;SDS011;59485;43.542;-5.676;2023-07-20T14:05:36;4.72;;;1.30;;
71637;SDS011;59485;43.542;-5.676;2023-07-20T14:08:02;6.03;;;1.33;;
71637;SDS011;59485;43.542;-5.676;2023-07-20T14:10:28;5.25;;;1.40;;
71637;SDS011;59485;43.542;-5.676;2023-07-20T14:12:53;3.90;;;1.52;;
71637;SDS011;59485;43.542;-5.676;2023-07-20T14:15:19;3.90;;;1.40;;
71637;SDS011;59485;43.542;-5.676;2023-07-20T14:17:45;3.97;;;1.50;;
71637;SDS011;59485;43.542;-5.676;2023-07-20T14:20:10;6.15;;;1.42;;
71637;SDS011;59485;43.542;-5.676;2023-07-20T14:22:36;6.10;;;1.95;;
71637;SDS011;59485;43.542;-5.676;2023-07-20T14:25:02;6.43;;;1.47;;
71637;SDS011;59485;43.542;-5.676;2023-07-20T14:27:29;4.60;;;1.50;;
71637;SDS011;59485;43.542;-5.676;2023-07-20T14:29:54;4.47;;;1.77;;
71637;SDS011;59485;43.542;-5.676;2023-07-20T14:32:20;4.78;;;1.70;;
71637;SDS011;59485;43.542;-5.676;2023-07-20T14:34:46;6.43;;;1.77;;
71637;SDS011;59485;43.542;-5.676;2023-07-20T14:37:11;8.23;;;1.33;;
71637;SDS011;59485;43.542;-5.676;2023-07-20T14:39:39;5.82;;;1.42;;
71637;SDS011;59485;43.542;-5.676;2023-07-20T14:42:05;4.97;;;1.77;;
71637;SDS011;59485;43.542;-5.676;2023-07-20T14:44:32;5.20;;;1.17;;
71637;SDS011;59485;43.542;-5.676;2023-07-20T14:46:58;4.35;;;1.10;;
71637;SDS011;59485;43.542;-5.676;2023-07-20T14:49:25;4.88;;;1.17;;
71637;SDS011;59485;43.542;-5.676;2023-07-20T14:51:52;7.85;;;1.55;;
71637;SDS011;59485;43.542;-5.676;2023-07-20T14:54:20;5.97;;;1.60;;
71637;SDS011;59485;43.542;-5.676;2023-07-20T14:56:49;4.28;;;1.85;;
71637;SDS011;59485;43.542;-5.676;2023-07-20T14:59:18;4.05;;;1.38;;